sensor_id;sensor_type;location;lat;lon;timestamp;pressure;altitude;pressure_sealevel;temperature
15544;BMP180;7873;52.230;12.856;2023-12-04T00:01:31;101334.91;;;26.95
15544;BMP180;7873;52.230;12.856;2023-12-04T00:03:58;101331.72;;;26.91
15544;BMP180;7873;52.230;12.856;2023-12-04T00:06:24;101324.84;;;26.89
15544;BMP180;7873;52.230;12.856;2023-12-04T00:08:51;101321.03;;;26.83
15544;BMP180;7873;52.230;12.856;2023-12-04T00:11:17;101323.25;;;26.80
15544;BMP180;7873;52.230;12.856;2023-12-04T00:13:44;101321.78;;;26.77
15544;BMP180;7873;52.230;12.856;2023-12-04T00:16:10;101319.47;;;26.74
15544;BMP180;7873;52.230;12.856;2023-12-04T00:18:38;101315.25;;;26.72
15544;BMP180;7873;52.230;12.856;2023-12-04T00:21:05;101309.38;;;26.68
15544;BMP180;7873;52.230;12.856;2023-12-04T00:23:31;101307.91;;;26.66
15544;BMP180;7873;52.230;12.856;2023-12-04T00:25:58;101309.31;;;26.62
15544;BMP180;7873;52.230;12.856;2023-12-04T00:28:24;101305.09;;;26.59
15544;BMP180;7873;52.230;12.856;2023-12-04T00:30:51;101308.84;;;26.58
15544;BMP180;7873;52.230;12.856;2023-12-04T00:33:17;101300.72;;;26.58
15544;BMP180;7873;52.230;12.856;2023-12-04T00:35:45;101297.56;;;26.55
15544;BMP180;7873;52.230;12.856;2023-12-04T00:38:11;101292.72;;;26.50
15544;BMP180;7873;52.230;12.856;2023-12-04T00:40:38;101298.50;;;26.47
15544;BMP180;7873;52.230;12.856;2023-12-04T00:43:04;101303.56;;;26.42
15544;BMP180;7873;52.230;12.856;2023-12-04T00:45:31;101300.22;;;26.40
15544;BMP180;7873;52.230;12.856;2023-12-04T00:47:57;101300.44;;;26.39
15544;BMP180;7873;52.230;12.856;2023-12-04T00:50:24;101306.19;;;26.36
15544;BMP180;7873;52.230;12.856;2023-12-04T00:52:51;101303.03;;;26.32
15544;BMP180;7873;52.230;12.856;2023-12-04T00:55:18;101304.22;;;26.30
15544;BMP180;7873;52.230;12.856;2023-12-04T00:57:45;101300.03;;;26.27
15544;BMP180;7873;52.230;12.856;2023-12-04T01:00:12;101295.19;;;26.23
15544;BMP180;7873;52.230;12.856;2023-12-04T01:02:39;101298.25;;;26.20
15544;BMP180;7873;52.230;12.856;2023-12-04T01:05:06;101298.63;;;26.17
15544;BMP180;7873;52.230;12.856;2023-12-04T01:07:33;101295.28;;;26.15
15544;BMP180;7873;52.230;12.856;2023-12-04T01:10:00;101292.09;;;26.11
15544;BMP180;7873;52.230;12.856;2023-12-04T01:12:27;101298.69;;;26.09
15544;BMP180;7873;52.230;12.856;2023-12-04T01:14:53;101290.78;;;26.07
15544;BMP180;7873;52.230;12.856;2023-12-04T01:17:20;101300.09;;;26.05
15544;BMP180;7873;52.230;12.856;2023-12-04T01:19:46;101291.34;;;26.03
15544;BMP180;7873;52.230;12.856;2023-12-04T01:22:13;101298.59;;;26.02
15544;BMP180;7873;52.230;12.856;2023-12-04T01:24:40;101302.66;;;25.98
15544;BMP180;7873;52.230;12.856;2023-12-04T01:27:07;101292.44;;;25.94
15544;BMP180;7873;52.230;12.856;2023-12-04T01:29:34;101292.44;;;25.94
15544;BMP180;7873;52.230;12.856;2023-12-04T01:32:00;101289.47;;;25.89
15544;BMP180;7873;52.230;12.856;2023-12-04T01:34:27;101285.63;;;25.83
15544;BMP180;7873;52.230;12.856;2023-12-04T01:36:53;101284.09;;;25.81
15544;BMP180;7873;52.230;12.856;2023-12-04T01:39:20;101282.41;;;25.80
15544;BMP180;7873;52.230;12.856;2023-12-04T01:41:46;101290.69;;;25.78
15544;BMP180;7873;52.230;12.856;2023-12-04T01:44:14;101279.25;;;25.76
15544;BMP180;7873;52.230;12.856;2023-12-04T01:46:41;101270.31;;;25.76
15544;BMP180;7873;52.230;12.856;2023-12-04T01:49:08;101269.81;;;25.72
15544;BMP180;7873;52.230;12.856;2023-12-04T01:51:35;101267.50;;;25.69
15544;BMP180;7873;52.230;12.856;2023-12-04T01:54:03;101267.84;;;25.66
15544;BMP180;7873;52.230;12.856;2023-12-04T01:56:31;101276.16;;;25.65
15544;BMP180;7873;52.230;12.856;2023-12-04T01:58:58;101264.66;;;25.63
15544;BMP180;7873;52.230;12.856;2023-12-04T02:01:26;101263.34;;;25.59
15544;BMP180;7873;52.230;12.856;2023-12-04T02:03:53;101263.34;;;25.59
15544;BMP180;7873;52.230;12.856;2023-12-04T02:06:21;101260.66;;;25.59
15544;BMP180;7873;52.230;12.856;2023-12-04T02:08:48;101267.44;;;25.55
15544;BMP180;7873;52.230;12.856;2023-12-04T02:11:14;101252.28;;;25.54
15544;BMP180;7873;52.230;12.856;2023-12-04T02:13:41;101251.78;;;25.51
15544;BMP180;7873;52.230;12.856;2023-12-04T02:16:10;101246.59;;;25.49
15544;BMP180;7873;52.230;12.856;2023-12-04T02:18:38;101238.03;;;25.46
15544;BMP180;7873;52.230;12.856;2023-12-04T02:21:05;101237.19;;;25.45
15544;BMP180;7873;52.230;12.856;2023-12-04T02:23:32;101242.75;;;25.44
15544;BMP180;7873;52.230;12.856;2023-12-04T02:26:04;101240.25;;;25.42
15544;BMP180;7873;52.230;12.856;2023-12-04T02:28:33;101244.31;;;25.38
15544;BMP180;7873;52.230;12.856;2023-12-04T02:31:03;101235.56;;;25.36
15544;BMP180;7873;52.230;12.856;2023-12-04T02:33:31;101230.38;;;25.35
15544;BMP180;7873;52.230;12.856;2023-12-04T02:35:59;101226.16;;;25.32
15544;BMP180;7873;52.230;12.856;2023-12-04T02:38:27;101227.84;;;25.33
15544;BMP180;7873;52.230;12.856;2023-12-04T02:40:54;101216.59;;;25.30
15544;BMP180;7873;52.230;12.856;2023-12-04T02:43:22;101217.78;;;25.27
15544;BMP180;7873;52.230;12.856;2023-12-04T02:45:49;101210.72;;;25.26
15544;BMP180;7873;52.230;12.856;2023-12-04T02:48:15;101218.50;;;25.21
15544;BMP180;7873;52.230;12.856;2023-12-04T02:50:42;101213.94;;;25.22
15544;BMP180;7873;52.230;12.856;2023-12-04T02:53:08;101206.34;;;25.17
15544;BMP180;7873;52.230;12.856;2023-12-04T02:55:35;101198.63;;;25.14
15544;BMP180;7873;52.230;12.856;2023-12-04T02:58:02;101199.19;;;25.10
15544;BMP180;7873;52.230;12.856;2023-12-04T03:00:30;101194.63;;;25.10
15544;BMP180;7873;52.230;12.856;2023-12-04T03:02:57;101190.25;;;25.09
15544;BMP180;7873;52.230;12.856;2023-12-04T03:05:23;101188.28;;;25.03
15544;BMP180;7873;52.230;12.856;2023-12-04T03:07:50;101190.59;;;25.06
15544;BMP180;7873;52.230;12.856;2023-12-04T03:10:16;101186.25;;;25.05
15544;BMP180;7873;52.230;12.856;2023-12-04T03:12:43;101184.72;;;25.03
15544;BMP180;7873;52.230;12.856;2023-12-04T03:15:09;101186.31;;;24.97
15544;BMP180;7873;52.230;12.856;2023-12-04T03:17:39;101179.56;;;24.93
15544;BMP180;7873;52.230;12.856;2023-12-04T03:20:07;101188.50;;;24.94
15544;BMP180;7873;52.230;12.856;2023-12-04T03:22:34;101183.94;;;24.94
15544;BMP180;7873;52.230;12.856;2023-12-04T03:25:00;101179.09;;;24.90
15544;BMP180;7873;52.230;12.856;2023-12-04T03:27:27;101173.22;;;24.86
15544;BMP180;7873;52.230;12.856;2023-12-04T03:29:53;101168.84;;;24.85
15544;BMP180;7873;52.230;12.856;2023-12-04T03:32:19;101163.84;;;24.82
15544;BMP180;7873;52.230;12.856;2023-12-04T03:34:47;101176.66;;;24.80
15544;BMP180;7873;52.230;12.856;2023-12-04T03:37:14;101171.41;;;24.79
15544;BMP180;7873;52.230;12.856;2023-12-04T03:39:40;101166.38;;;24.76
15544;BMP180;7873;52.230;12.856;2023-12-04T03:42:07;101166.22;;;24.77
15544;BMP180;7873;52.230;12.856;2023-12-04T03:44:33;101165.38;;;24.77
15544;BMP180;7873;52.230;12.856;2023-12-04T03:47:00;101162.38;;;24.72
15544;BMP180;7873;52.230;12.856;2023-12-04T03:49:26;101156.16;;;24.71
15544;BMP180;7873;52.230;12.856;2023-12-04T03:51:54;101162.38;;;24.72
15544;BMP180;7873;52.230;12.856;2023-12-04T03:54:21;101161.38;;;24.73
15544;BMP180;7873;52.230;12.856;2023-12-04T03:56:47;101154.13;;;24.73
15544;BMP180;7873;52.230;12.856;2023-12-04T03:59:14;101153.78;;;24.76
15544;BMP180;7873;52.230;12.856;2023-12-04T04:01:40;101156.63;;;24.75
15544;BMP180;7873;52.230;12.856;2023-12-04T04:04:06;101146.88;;;24.74
15544;BMP180;7873;52.230;12.856;2023-12-04T04:06:33;101152.75;;;24.77
15544;BMP180;7873;52.230;12.856;2023-12-04T04:09:01;101151.03;;;24.84
15544;BMP180;7873;52.230;12.856;2023-12-04T04:11:27;101148.81;;;24.88
15544;BMP180;7873;52.230;12.856;2023-12-04T04:13:54;101150.28;;;24.90
15544;BMP180;7873;52.230;12.856;2023-12-04T04:16:20;101147.25;;;24.93
15544;BMP180;7873;52.230;12.856;2023-12-04T04:18:47;101156.19;;;24.94
15544;BMP180;7873;52.230;12.856;2023-12-04T04:21:13;101148.91;;;24.94
15544;BMP180;7873;52.230;12.856;2023-12-04T04:23:40;101146.22;;;24.94
15544;BMP180;7873;52.230;12.856;2023-12-04T04:26:08;101147.94;;;24.95
15544;BMP180;7873;52.230;12.856;2023-12-04T04:28:34;101141.19;;;24.91
15544;BMP180;7873;52.230;12.856;2023-12-04T04:31:00;101139.06;;;24.87
15544;BMP180;7873;52.230;12.856;2023-12-04T04:33:27;101142.78;;;24.47
15544;BMP180;7873;52.230;12.856;2023-12-04T04:35:53;101142.41;;;24.28
15544;BMP180;7873;52.230;12.856;2023-12-04T04:38:20;101138.91;;;24.19
15544;BMP180;7873;52.230;12.856;2023-12-04T04:40:46;101140.19;;;24.31
15544;BMP180;7873;52.230;12.856;2023-12-04T04:43:14;101128.84;;;24.44
15544;BMP180;7873;52.230;12.856;2023-12-04T04:45:41;101127.00;;;24.44
15544;BMP180;7873;52.230;12.856;2023-12-04T04:48:07;101127.22;;;24.35
15544;BMP180;7873;52.230;12.856;2023-12-04T04:50:34;101135.84;;;24.30
15544;BMP180;7873;52.230;12.856;2023-12-04T04:53:00;101129.94;;;24.27
15544;BMP180;7873;52.230;12.856;2023-12-04T04:55:27;101119.53;;;24.24
15544;BMP180;7873;52.230;12.856;2023-12-04T04:57:53;101116.00;;;24.23
15544;BMP180;7873;52.230;12.856;2023-12-04T05:00:21;101124.25;;;24.22
15544;BMP180;7873;52.230;12.856;2023-12-04T05:02:47;101112.84;;;24.20
15544;BMP180;7873;52.230;12.856;2023-12-04T05:05:14;101117.56;;;24.18
15544;BMP180;7873;52.230;12.856;2023-12-04T05:07:40;101113.00;;;24.18
15544;BMP180;7873;52.230;12.856;2023-12-04T05:10:07;101115.03;;;24.16
15544;BMP180;7873;52.230;12.856;2023-12-04T05:12:34;101105.94;;;24.17
15544;BMP180;7873;52.230;12.856;2023-12-04T05:15:00;101105.28;;;24.15
15544;BMP180;7873;52.230;12.856;2023-12-04T05:17:28;101099.06;;;24.15
15544;BMP180;7873;52.230;12.856;2023-12-04T05:19:55;101096.53;;;24.13
15544;BMP180;7873;52.230;12.856;2023-12-04T05:22:22;101096.91;;;24.10
15544;BMP180;7873;52.230;12.856;2023-12-04T05:24:48;101089.84;;;24.09
15544;BMP180;7873;52.230;12.856;2023-12-04T05:27:15;101088.31;;;24.07
15544;BMP180;7873;52.230;12.856;2023-12-04T05:29:41;101087.66;;;24.05
15544;BMP180;7873;52.230;12.856;2023-12-04T05:32:07;101076.09;;;24.04
15544;BMP180;7873;52.230;12.856;2023-12-04T05:34:35;101083.31;;;24.04
15544;BMP180;7873;52.230;12.856;2023-12-04T05:37:02;101090.72;;;24.02
15544;BMP180;7873;52.230;12.856;2023-12-04T05:39:28;101087.16;;;24.01
15544;BMP180;7873;52.230;12.856;2023-12-04T05:41:55;101093.91;;;23.97
15544;BMP180;7873;52.230;12.856;2023-12-04T05:44:21;101088.72;;;23.96
15544;BMP180;7873;52.230;12.856;2023-12-04T05:46:48;101090.25;;;23.90
15544;BMP180;7873;52.230;12.856;2023-12-04T05:49:14;101085.03;;;23.89
15544;BMP180;7873;52.230;12.856;2023-12-04T05:51:42;101092.63;;;23.85
15544;BMP180;7873;52.230;12.856;2023-12-04T05:54:08;101092.78;;;23.84
15544;BMP180;7873;52.230;12.856;2023-12-04T05:56:35;101090.09;;;23.84
15544;BMP180;7873;52.230;12.856;2023-12-04T05:59:01;101090.41;;;23.81
15544;BMP180;7873;52.230;12.856;2023-12-04T06:01:28;101077.84;;;23.82
15544;BMP180;7873;52.230;12.856;2023-12-04T06:03:54;101084.22;;;23.80
15544;BMP180;7873;52.230;12.856;2023-12-04T06:06:21;101067.22;;;23.80
15544;BMP180;7873;52.230;12.856;2023-12-04T06:08:49;101067.59;;;23.77
15544;BMP180;7873;52.230;12.856;2023-12-04T06:11:15;101060.69;;;23.74
15544;BMP180;7873;52.230;12.856;2023-12-04T06:13:42;101056.31;;;23.73
15544;BMP180;7873;52.230;12.856;2023-12-04T06:16:09;101056.69;;;23.71
15544;BMP180;7873;52.230;12.856;2023-12-04T06:18:35;101061.88;;;23.72
15544;BMP180;7873;52.230;12.856;2023-12-04T06:21:02;101054.34;;;23.68
15544;BMP180;7873;52.230;12.856;2023-12-04T06:23:29;101054.50;;;23.66
15544;BMP180;7873;52.230;12.856;2023-12-04T06:25:58;101051.81;;;23.66
15544;BMP180;7873;52.230;12.856;2023-12-04T06:28:25;101044.44;;;23.68
15544;BMP180;7873;52.230;12.856;2023-12-04T06:30:52;101055.34;;;23.67
15544;BMP180;7873;52.230;12.856;2023-12-04T06:33:19;101046.13;;;23.61
15544;BMP180;7873;52.230;12.856;2023-12-04T06:35:46;101043.78;;;23.58
15544;BMP180;7873;52.230;12.856;2023-12-04T06:38:14;101048.50;;;23.56
15544;BMP180;7873;52.230;12.856;2023-12-04T06:40:41;101040.13;;;23.51
15544;BMP180;7873;52.230;12.856;2023-12-04T06:43:10;101043.16;;;23.48
15544;BMP180;7873;52.230;12.856;2023-12-04T06:45:38;101043.50;;;23.45
15544;BMP180;7873;52.230;12.856;2023-12-04T06:48:05;101039.59;;;23.48
15544;BMP180;7873;52.230;12.856;2023-12-04T06:50:33;101046.00;;;23.47
15544;BMP180;7873;52.230;12.856;2023-12-04T06:53:00;101049.19;;;23.42
15544;BMP180;7873;52.230;12.856;2023-12-04T06:55:27;101044.00;;;23.41
15544;BMP180;7873;52.230;12.856;2023-12-04T06:57:54;101045.00;;;23.40
15544;BMP180;7873;52.230;12.856;2023-12-04T07:00:21;101045.84;;;23.40
15544;BMP180;7873;52.230;12.856;2023-12-04T07:02:48;101045.19;;;23.38
15544;BMP180;7873;52.230;12.856;2023-12-04T07:05:15;101046.03;;;23.39
15544;BMP180;7873;52.230;12.856;2023-12-04T07:07:41;101042.50;;;23.38
15544;BMP180;7873;52.230;12.856;2023-12-04T07:10:08;101039.13;;;23.36
15544;BMP180;7873;52.230;12.856;2023-12-04T07:12:40;101036.28;;;23.38
15544;BMP180;7873;52.230;12.856;2023-12-04T07:15:07;101038.31;;;23.36
15544;BMP180;7873;52.230;12.856;2023-12-04T07:17:35;101040.34;;;23.34
15544;BMP180;7873;52.230;12.856;2023-12-04T07:20:02;101032.75;;;23.37
15544;BMP180;7873;52.230;12.856;2023-12-04T07:22:31;101038.31;;;23.36
15544;BMP180;7873;52.230;12.856;2023-12-04T07:24:58;101033.09;;;23.34
15544;BMP180;7873;52.230;12.856;2023-12-04T07:27:24;101032.44;;;23.32
15544;BMP180;7873;52.230;12.856;2023-12-04T07:29:51;101038.66;;;23.33
15544;BMP180;7873;52.230;12.856;2023-12-04T07:32:17;101032.59;;;23.31
15544;BMP180;7873;52.230;12.856;2023-12-04T07:34:45;101026.91;;;23.26
15544;BMP180;7873;52.230;12.856;2023-12-04T07:37:12;101021.72;;;23.24
15544;BMP180;7873;52.230;12.856;2023-12-04T07:39:38;101023.91;;;23.21
15544;BMP180;7873;52.230;12.856;2023-12-04T07:42:05;101019.53;;;23.20
15544;BMP180;7873;52.230;12.856;2023-12-04T07:44:31;101025.25;;;23.17
15544;BMP180;7873;52.230;12.856;2023-12-04T07:46:58;101019.38;;;23.13
15544;BMP180;7873;52.230;12.856;2023-12-04T07:49:24;101023.91;;;23.13
15544;BMP180;7873;52.230;12.856;2023-12-04T07:51:52;101018.38;;;23.22
15544;BMP180;7873;52.230;12.856;2023-12-04T07:54:18;101011.78;;;23.25
15544;BMP180;7873;52.230;12.856;2023-12-04T07:56:45;101017.81;;;23.27
15544;BMP180;7873;52.230;12.856;2023-12-04T07:59:11;101017.66;;;23.28
15544;BMP180;7873;52.230;12.856;2023-12-04T08:01:38;101011.44;;;23.28
15544;BMP180;7873;52.230;12.856;2023-12-04T08:04:04;101005.41;;;23.26
15544;BMP180;7873;52.230;12.856;2023-12-04T08:06:31;101010.31;;;23.22
15544;BMP180;7873;52.230;12.856;2023-12-04T08:08:59;101004.75;;;23.24
15544;BMP180;7873;52.230;12.856;2023-12-04T08:11:25;100998.84;;;23.28
15544;BMP180;7873;52.230;12.856;2023-12-04T08:13:51;100993.13;;;23.31
15544;BMP180;7873;52.230;12.856;2023-12-04T08:16:18;100992.63;;;23.36
15544;BMP180;7873;52.230;12.856;2023-12-04T08:18:45;100993.81;;;23.33
15544;BMP180;7873;52.230;12.856;2023-12-04T08:21:11;100989.13;;;23.27
15544;BMP180;7873;52.230;12.856;2023-12-04T08:23:38;100990.97;;;23.27
15544;BMP180;7873;52.230;12.856;2023-12-04T08:26:06;100988.47;;;23.25
15544;BMP180;7873;52.230;12.856;2023-12-04T08:28:33;100987.44;;;23.26
15544;BMP180;7873;52.230;12.856;2023-12-04T08:31:00;100997.69;;;23.23
15544;BMP180;7873;52.230;12.856;2023-12-04T08:33:27;100999.38;;;23.24
15544;BMP180;7873;52.230;12.856;2023-12-04T08:35:53;100992.31;;;23.23
15544;BMP180;7873;52.230;12.856;2023-12-04T08:38:20;101000.38;;;23.23
15544;BMP180;7873;52.230;12.856;2023-12-04T08:40:46;100990.13;;;23.18
15544;BMP180;7873;52.230;12.856;2023-12-04T08:43:14;100990.81;;;23.12
15544;BMP180;7873;52.230;12.856;2023-12-04T08:45:41;100990.81;;;23.12
15544;BMP180;7873;52.230;12.856;2023-12-04T08:48:07;100990.63;;;23.06
15544;BMP180;7873;52.230;12.856;2023-12-04T08:50:35;100988.31;;;22.95
15544;BMP180;7873;52.230;12.856;2023-12-04T08:53:03;100998.41;;;22.93
15544;BMP180;7873;52.230;12.856;2023-12-04T08:55:29;100993.84;;;22.93
15544;BMP180;7873;52.230;12.856;2023-12-04T08:57:56;101003.94;;;22.83
15544;BMP180;7873;52.230;12.856;2023-12-04T09:00:24;100995.88;;;22.83
15544;BMP180;7873;52.230;12.856;2023-12-04T09:02:50;101004.59;;;22.85
15544;BMP180;7873;52.230;12.856;2023-12-04T09:05:17;101005.78;;;22.83
15544;BMP180;7873;52.230;12.856;2023-12-04T09:07:43;101009.81;;;22.79
15544;BMP180;7873;52.230;12.856;2023-12-04T09:10:09;101013.34;;;22.79
15544;BMP180;7873;52.230;12.856;2023-12-04T09:12:36;101012.50;;;22.79
15544;BMP180;7873;52.230;12.856;2023-12-04T09:15:04;101017.19;;;22.77
15544;BMP180;7873;52.230;12.856;2023-12-04T09:17:32;101017.69;;;22.72
15544;BMP180;7873;52.230;12.856;2023-12-04T09:19:58;101017.69;;;22.64
15544;BMP180;7873;52.230;12.856;2023-12-04T09:22:25;101016.84;;;22.56
15544;BMP180;7873;52.230;12.856;2023-12-04T09:24:51;101021.88;;;22.51
15544;BMP180;7873;52.230;12.856;2023-12-04T09:27:18;101017.53;;;22.50
15544;BMP180;7873;52.230;12.856;2023-12-04T09:29:44;101021.88;;;22.51
15544;BMP180;7873;52.230;12.856;2023-12-04T09:32:11;101022.75;;;22.51
15544;BMP180;7873;52.230;12.856;2023-12-04T09:34:38;101020.88;;;22.52
15544;BMP180;7873;52.230;12.856;2023-12-04T09:37:05;101019.19;;;22.51
15544;BMP180;7873;52.230;12.856;2023-12-04T09:39:33;101013.84;;;22.51
15544;BMP180;7873;52.230;12.856;2023-12-04T09:41:59;101018.53;;;22.49
15544;BMP180;7873;52.230;12.856;2023-12-04T09:44:28;101011.50;;;22.48
15544;BMP180;7873;52.230;12.856;2023-12-04T09:46:55;101015.34;;;22.45
15544;BMP180;7873;52.230;12.856;2023-12-04T09:49:22;101003.94;;;22.43
15544;BMP180;7873;52.230;12.856;2023-12-04T09:51:51;101009.47;;;22.42
15544;BMP180;7873;52.230;12.856;2023-12-04T09:54:17;101006.28;;;22.38
15544;BMP180;7873;52.230;12.856;2023-12-04T09:56:45;101000.91;;;22.38
15544;BMP180;7873;52.230;12.856;2023-12-04T09:59:13;101000.91;;;22.38
15544;BMP180;7873;52.230;12.856;2023-12-04T10:01:40;101004.41;;;22.39
15544;BMP180;7873;52.230;12.856;2023-12-04T10:04:07;100996.38;;;22.39
15544;BMP180;7873;52.230;12.856;2023-12-04T10:06:36;100991.19;;;22.37
15544;BMP180;7873;52.230;12.856;2023-12-04T10:09:05;100992.97;;;22.37
15544;BMP180;7873;52.230;12.856;2023-12-04T10:11:39;100980.56;;;22.36
15544;BMP180;7873;52.230;12.856;2023-12-04T10:14:14;100976.22;;;22.35
15544;BMP180;7873;52.230;12.856;2023-12-04T10:16:40;100975.53;;;22.33
15544;BMP180;7873;52.230;12.856;2023-12-04T10:19:18;100970.38;;;22.31
15544;BMP180;7873;52.230;12.856;2023-12-04T10:21:45;100958.78;;;22.31
15544;BMP180;7873;52.230;12.856;2023-12-04T10:24:26;100948.22;;;22.29
15544;BMP180;7873;52.230;12.856;2023-12-04T10:26:53;100946.56;;;22.28
15544;BMP180;7873;52.230;12.856;2023-12-04T10:29:20;100944.53;;;22.30
15544;BMP180;7873;52.230;12.856;2023-12-04T10:31:46;100941.00;;;22.30
15544;BMP180;7873;52.230;12.856;2023-12-04T10:34:15;100923.91;;;22.31
15544;BMP180;7873;52.230;12.856;2023-12-04T10:36:42;100931.13;;;22.30
15544;BMP180;7873;52.230;12.856;2023-12-04T10:39:11;100916.84;;;22.30
15544;BMP180;7873;52.230;12.856;2023-12-04T10:41:39;100914.84;;;22.32
15544;BMP180;7873;52.230;12.856;2023-12-04T10:44:06;100913.69;;;22.34
15544;BMP180;7873;52.230;12.856;2023-12-04T10:46:35;100906.50;;;22.43
15544;BMP180;7873;52.230;12.856;2023-12-04T10:49:03;100896.75;;;22.50
15544;BMP180;7873;52.230;12.856;2023-12-04T10:51:30;100905.31;;;22.61
15544;BMP180;7873;52.230;12.856;2023-12-04T10:53:57;100892.88;;;22.76
15544;BMP180;7873;52.230;12.856;2023-12-04T10:56:28;100889.97;;;22.94
15544;BMP180;7873;52.230;12.856;2023-12-04T10:58:57;100886.38;;;23.17
15544;BMP180;7873;52.230;12.856;2023-12-04T11:01:25;100886.41;;;23.48
15544;BMP180;7873;52.230;12.856;2023-12-04T11:03:53;100884.06;;;23.75
15544;BMP180;7873;52.230;12.856;2023-12-04T11:06:23;100872.81;;;24.02
15544;BMP180;7873;52.230;12.856;2023-12-04T11:08:52;100880.84;;;24.24
15544;BMP180;7873;52.230;12.856;2023-12-04T11:11:26;100876.47;;;24.46
15544;BMP180;7873;52.230;12.856;2023-12-04T11:13:54;100868.34;;;24.68
15544;BMP180;7873;52.230;12.856;2023-12-04T11:16:28;100870.69;;;24.86
15544;BMP180;7873;52.230;12.856;2023-12-04T11:19:01;100869.44;;;25.03
15544;BMP180;7873;52.230;12.856;2023-12-04T11:21:31;100871.88;;;25.12
15544;BMP180;7873;52.230;12.856;2023-12-04T11:23:58;100865.19;;;25.23
15544;BMP180;7873;52.230;12.856;2023-12-04T11:26:25;100862.31;;;25.10
15544;BMP180;7873;52.230;12.856;2023-12-04T11:28:52;100862.59;;;25.15
15544;BMP180;7873;52.230;12.856;2023-12-04T11:31:19;100850.97;;;25.29
15544;BMP180;7873;52.230;12.856;2023-12-04T11:33:47;100859.47;;;25.47
15544;BMP180;7873;52.230;12.856;2023-12-04T11:36:15;100850.97;;;25.64
15544;BMP180;7873;52.230;12.856;2023-12-04T11:38:44;100848.53;;;25.83
15544;BMP180;7873;52.230;12.856;2023-12-04T11:41:15;100846.63;;;26.05
15544;BMP180;7873;52.230;12.856;2023-12-04T11:43:42;100831.84;;;26.22
15544;BMP180;7873;52.230;12.856;2023-12-04T11:46:09;100832.19;;;26.40
15544;BMP180;7873;52.230;12.856;2023-12-04T11:48:36;100831.91;;;26.56
15544;BMP180;7873;52.230;12.856;2023-12-04T11:51:05;100823.50;;;26.72
15544;BMP180;7873;52.230;12.856;2023-12-04T11:53:32;100824.63;;;26.84
15544;BMP180;7873;52.230;12.856;2023-12-04T11:56:08;100817.59;;;26.96
15544;BMP180;7873;52.230;12.856;2023-12-04T11:58:41;100821.59;;;27.06
15544;BMP180;7873;52.230;12.856;2023-12-04T12:01:08;100811.69;;;27.13
15544;BMP180;7873;52.230;12.856;2023-12-04T12:03:35;100804.44;;;27.20
15544;BMP180;7873;52.230;12.856;2023-12-04T12:06:02;100807.16;;;27.27
15544;BMP180;7873;52.230;12.856;2023-12-04T12:08:30;100802.00;;;27.32
15544;BMP180;7873;52.230;12.856;2023-12-04T12:10:57;100799.28;;;27.38
15544;BMP180;7873;52.230;12.856;2023-12-04T12:13:23;100794.13;;;27.43
15544;BMP180;7873;52.230;12.856;2023-12-04T12:15:51;100787.69;;;27.44
15544;BMP180;7873;52.230;12.856;2023-12-04T12:18:18;100786.41;;;27.40
15544;BMP180;7873;52.230;12.856;2023-12-04T12:20:44;100785.56;;;27.39
15544;BMP180;7873;52.230;12.856;2023-12-04T12:23:11;100779.72;;;27.36
15544;BMP180;7873;52.230;12.856;2023-12-04T12:25:39;100778.91;;;27.36
15544;BMP180;7873;52.230;12.856;2023-12-04T12:28:05;100771.44;;;27.38
15544;BMP180;7873;52.230;12.856;2023-12-04T12:30:33;100774.75;;;27.39
15544;BMP180;7873;52.230;12.856;2023-12-04T12:32:59;100781.47;;;27.56
15544;BMP180;7873;52.230;12.856;2023-12-04T12:35:26;100773.13;;;27.58
15544;BMP180;7873;52.230;12.856;2023-12-04T12:37:52;100774.19;;;27.63
15544;BMP180;7873;52.230;12.856;2023-12-04T12:40:20;100775.22;;;27.62
15544;BMP180;7873;52.230;12.856;2023-12-04T12:42:48;100767.13;;;27.69
15544;BMP180;7873;52.230;12.856;2023-12-04T12:45:17;100768.41;;;27.73
15544;BMP180;7873;52.230;12.856;2023-12-04T12:47:43;100755.28;;;27.76
15544;BMP180;7873;52.230;12.856;2023-12-04T12:50:10;100750.91;;;27.82
15544;BMP180;7873;52.230;12.856;2023-12-04T12:52:38;100746.97;;;27.84
15544;BMP180;7873;52.230;12.856;2023-12-04T12:55:05;100751.75;;;27.89
15544;BMP180;7873;52.230;12.856;2023-12-04T12:57:32;100741.94;;;27.94
15544;BMP180;7873;52.230;12.856;2023-12-04T13:00:00;100742.38;;;27.98
15544;BMP180;7873;52.230;12.856;2023-12-04T13:02:27;100745.09;;;28.04
15544;BMP180;7873;52.230;12.856;2023-12-04T13:04:53;100734.03;;;28.12
15544;BMP180;7873;52.230;12.856;2023-12-04T13:07:20;100743.19;;;28.18
15544;BMP180;7873;52.230;12.856;2023-12-04T13:09:46;100739.25;;;28.14
15544;BMP180;7873;52.230;12.856;2023-12-04T13:12:13;100734.06;;;27.99
15544;BMP180;7873;52.230;12.856;2023-12-04T13:14:40;100724.88;;;27.94
15544;BMP180;7873;52.230;12.856;2023-12-04T13:17:08;100723.84;;;27.95
15544;BMP180;7873;52.230;12.856;2023-12-04T13:19:34;100723.63;;;28.03
15544;BMP180;7873;52.230;12.856;2023-12-04T13:22:01;100705.72;;;28.08
15544;BMP180;7873;52.230;12.856;2023-12-04T13:24:29;100703.84;;;28.09
15544;BMP180;7873;52.230;12.856;2023-12-04T13:26:55;100706.75;;;28.07
15544;BMP180;7873;52.230;12.856;2023-12-04T13:29:22;100704.91;;;28.08
15544;BMP180;7873;52.230;12.856;2023-12-04T13:31:49;100700.91;;;28.10
15544;BMP180;7873;52.230;12.856;2023-12-04T13:34:17;100701.53;;;28.06
15544;BMP180;7873;52.230;12.856;2023-12-04T13:36:44;100697.59;;;28.02
15544;BMP180;7873;52.230;12.856;2023-12-04T13:39:10;100690.31;;;27.96
15544;BMP180;7873;52.230;12.856;2023-12-04T13:41:43;100692.19;;;27.95
15544;BMP180;7873;52.230;12.856;2023-12-04T13:44:28;100685.94;;;27.95
15544;BMP180;7873;52.230;12.856;2023-12-04T13:46:55;100687.00;;;27.94
15544;BMP180;7873;52.230;12.856;2023-12-04T13:49:23;100685.53;;;27.91
15544;BMP180;7873;52.230;12.856;2023-12-04T13:51:49;100679.09;;;27.86
15544;BMP180;7873;52.230;12.856;2023-12-04T13:54:15;100683.47;;;27.80
15544;BMP180;7873;52.230;12.856;2023-12-04T13:56:47;100684.09;;;27.82